Time;durP1;ratioP1;P1;durP2;ratioP2;P2;SDS_P1;SDS_P2;PMS_P1;PMS_P2;Temp;Humidity;BMP_temperature;BMP_pressure;BME280_temperature;BME280_humidity;BME280_pressure;Samples;Min_cycle;Max_cycle;Signal;HPM_P1;HPM_P2
2022/04/16 00:01:04;;;;;;;;;;;;;;;17.88;46.28;100744.09;5074176;28;1981;-62
2022/04/16 00:03:30;;;;;;;;;;;;;;;17.89;46.15;100746.59;5076305;28;942;-62
2022/04/16 00:05:55;;;;;;;;;;;;;;;17.90;46.06;100742.72;5076462;28;840;-62
2022/04/16 00:08:21;;;;;;;;;;;;;;;17.78;45.49;100739.47;5075970;28;1011;-62
2022/04/16 00:10:47;;;;;;;;;;;;;;;17.55;44.85;100735.47;5075995;28;857;-63
2022/04/16 00:13:13;;;;;;;;;;;;;;;17.34;43.79;100731.97;5076398;28;849;-65
2022/04/16 00:15:38;;;;;;;;;;;;;;;17.03;42.67;100723.81;5070269;28;1277;-63
2022/04/16 00:18:03;;;;;;;;;;;;;;;16.92;41.89;100720.25;5079945;28;827;-61
2022/04/16 00:20:31;;;;;;;;;;;;;;;16.72;41.12;100719.13;5079699;28;1910;-61
2022/04/16 00:22:56;;;;;;;;;;;;;;;16.58;40.75;100707.06;5079847;28;830;-59
2022/04/16 00:25:22;;;;;;;;;;;;;;;16.55;40.72;100704.84;5080549;28;925;-58
2022/04/16 00:27:47;;;;;;;;;;;;;;;16.57;40.69;100708.16;5080364;28;949;-57
2022/04/16 00:30:13;;;;;;;;;;;;;;;16.58;42.01;100701.59;5075774;28;887;-58
2022/04/16 00:32:40;;;;;;;;;;;;;;;16.73;42.67;100695.25;5078621;28;828;-60
2022/04/16 00:35:07;;;;;;;;;;;;;;;16.89;43.90;100690.59;5079783;28;806;-60
2022/04/16 00:37:33;;;;;;;;;;;;;;;17.03;44.29;100702.63;5079989;28;943;-60
2022/04/16 00:39:59;;;;;;;;;;;;;;;17.11;44.60;100695.75;5079712;28;1906;-60
2022/04/16 00:42:24;;;;;;;;;;;;;;;17.13;45.09;100690.00;5079342;28;907;-60
2022/04/16 00:44:50;;;;;;;;;;;;;;;17.17;44.96;100691.06;5078216;28;865;-60
2022/04/16 00:47:15;;;;;;;;;;;;;;;17.23;45.04;100695.44;5077384;28;829;-60
2022/04/16 00:49:40;;;;;;;;;;;;;;;17.20;45.13;100690.50;5079520;28;758;-60
2022/04/16 00:52:08;;;;;;;;;;;;;;;17.27;45.11;100696.53;5079512;28;801;-59
2022/04/16 00:54:34;;;;;;;;;;;;;;;17.30;45.20;100698.72;5079495;28;906;-60
2022/04/16 00:56:59;;;;;;;;;;;;;;;17.37;45.25;100696.47;5078987;28;921;-59
2022/04/16 00:59:25;;;;;;;;;;;;;;;17.48;45.09;100686.28;5079297;28;1967;-59
2022/04/16 01:01:50;;;;;;;;;;;;;;;17.42;45.50;100685.47;5078239;28;869;-59
2022/04/16 01:04:16;;;;;;;;;;;;;;;17.45;45.50;100682.16;5079539;28;901;-59
2022/04/16 01:06:48;;;;;;;;;;;;;;;17.47;45.37;100681.88;5079234;28;887;-59
2022/04/16 01:09:14;;;;;;;;;;;;;;;17.57;45.29;100678.25;5079683;28;927;-60
2022/04/16 01:11:39;;;;;;;;;;;;;;;17.58;45.25;100679.91;5078158;28;818;-60
2022/04/16 01:14:05;;;;;;;;;;;;;;;17.62;45.29;100681.00;5079634;28;801;-60
2022/04/16 01:16:30;;;;;;;;;;;;;;;17.57;45.59;100670.00;5073037;28;1105;-60
2022/04/16 01:18:56;;;;;;;;;;;;;;;17.64;45.51;100669.69;5079069;28;903;-60
2022/04/16 01:21:21;;;;;;;;;;;;;;;17.63;45.41;100663.38;5078971;28;1982;-60
2022/04/16 01:23:47;;;;;;;;;;;;;;;17.58;45.50;100666.16;5078720;28;834;-61
2022/04/16 01:26:13;;;;;;;;;;;;;;;17.67;45.54;100658.13;5060441;28;1107;-61
2022/04/16 01:28:40;;;;;;;;;;;;;;;17.63;45.62;100649.63;5078742;28;862;-61
2022/04/16 01:31:06;;;;;;;;;;;;;;;17.67;45.77;100655.38;5074987;28;857;-61
2022/04/16 01:33:32;;;;;;;;;;;;;;;17.67;45.66;100655.38;5078770;28;798;-61
2022/04/16 01:35:58;;;;;;;;;;;;;;;17.69;45.50;100665.00;5077151;28;888;-61
2022/04/16 01:38:25;;;;;;;;;;;;;;;17.62;45.54;100654.31;5078528;28;955;-61
2022/04/16 01:40:57;;;;;;;;;;;;;;;17.66;45.29;100659.25;5078800;28;1910;-61
2022/04/16 01:43:22;;;;;;;;;;;;;;;17.65;45.33;100658.41;5072517;28;889;-61
2022/04/16 01:45:49;;;;;;;;;;;;;;;17.64;45.36;100651.25;5076362;28;778;-61
2022/04/16 01:48:18;;;;;;;;;;;;;;;17.73;45.40;100666.06;5078470;28;969;-61
2022/04/16 01:50:44;;;;;;;;;;;;;;;17.71;45.17;100665.53;5077843;28;929;-61
2022/04/16 01:53:09;;;;;;;;;;;;;;;17.73;45.29;100666.06;5059887;28;797;-62
2022/04/16 01:55:35;;;;;;;;;;;;;;;17.78;45.39;100657.81;5059874;28;837;-61
2022/04/16 01:58:00;;;;;;;;;;;;;;;17.79;45.51;100662.19;5078061;28;873;-61
2022/04/16 02:00:26;;;;;;;;;;;;;;;17.78;45.52;100663.31;5078238;28;1980;-60
2022/04/16 02:02:51;;;;;;;;;;;;;;;17.82;45.51;100663.53;5077268;28;921;-60
2022/04/16 02:05:17;;;;;;;;;;;;;;;17.84;45.71;100666.00;5078161;28;806;-61
2022/04/16 02:07:42;;;;;;;;;;;;;;;17.87;45.54;100659.94;5078081;28;805;-62
2022/04/16 02:10:08;;;;;;;;;;;;;;;17.83;45.57;100654.19;5077849;28;892;-62
2022/04/16 02:12:35;;;;;;;;;;;;;;;17.88;45.80;100656.06;5077552;28;850;-61
2022/04/16 02:15:00;;;;;;;;;;;;;;;17.88;45.46;100656.06;5055102;28;1096;-62
2022/04/16 02:17:26;;;;;;;;;;;;;;;17.88;45.69;100656.06;5077539;28;998;-61
2022/04/16 02:19:51;;;;;;;;;;;;;;;17.81;45.78;100652.81;5077763;28;1901;-62
2022/04/16 02:22:17;;;;;;;;;;;;;;;17.69;45.08;100648.50;5077936;28;762;-61
2022/04/16 02:24:44;;;;;;;;;;;;;;;17.52;44.50;100651.63;5077732;28;811;-60
2022/04/16 02:27:09;;;;;;;;;;;;;;;17.31;43.74;100656.38;5074875;28;1091;-61
2022/04/16 02:29:35;;;;;;;;;;;;;;;17.12;42.50;100649.88;5073408;28;881;-61
2022/04/16 02:32:02;;;;;;;;;;;;;;;16.94;41.63;100649.38;5074302;28;986;-61
2022/04/16 02:34:27;;;;;;;;;;;;;;;16.76;41.35;100648.03;5077269;28;833;-60
2022/04/16 02:36:53;;;;;;;;;;;;;;;16.67;40.71;100649.69;5077595;28;972;-60
2022/04/16 02:39:18;;;;;;;;;;;;;;;16.54;40.12;100651.09;5077068;28;766;-60
2022/04/16 02:41:44;;;;;;;;;;;;;;;16.54;40.62;100646.41;5073502;28;1977;-61
2022/04/16 02:47:05;;;;;;;;;;;;;;;16.58;41.42;100641.19;5077456;28;874;-60
2022/04/16 02:47:08;;;;;;;;;;;;;;;16.81;42.67;100644.44;5075736;28;1119;-61
2022/04/16 02:49:34;;;;;;;;;;;;;;;16.98;43.60;100644.97;5076978;28;807;-60
2022/04/16 02:51:59;;;;;;;;;;;;;;;17.08;44.23;100635.88;5077393;28;800;-61
2022/04/16 02:54:25;;;;;;;;;;;;;;;17.17;44.46;100631.44;5070670;28;818;-61
2022/04/16 02:56:50;;;;;;;;;;;;;;;17.23;44.73;100630.31;5077123;28;861;-60
2022/04/16 02:59:16;;;;;;;;;;;;;;;17.31;45.00;100631.66;5077126;28;870;-60
2022/04/16 03:01:41;;;;;;;;;;;;;;;17.42;44.91;100621.44;5070594;28;1913;-61
2022/04/16 03:04:07;;;;;;;;;;;;;;;17.38;45.09;100623.91;5077122;28;778;-61
2022/04/16 03:06:32;;;;;;;;;;;;;;;17.44;45.23;100620.03;5076639;28;752;-61
2022/04/16 03:08:58;;;;;;;;;;;;;;;17.45;45.09;100618.94;5076464;28;737;-60
2022/04/16 03:11:23;;;;;;;;;;;;;;;17.50;45.09;100620.00;5076762;28;1091;-61
2022/04/16 03:13:48;;;;;;;;;;;;;;;17.54;45.03;100624.66;5076822;28;820;-61
2022/04/16 03:18:58;;;;;;;;;;;;;;;17.61;45.15;100624.34;5057719;28;909;-68
2022/04/16 03:21:23;;;;;;;;;;;;;;;17.60;45.24;100634.53;5058525;28;1903;-63
2022/04/16 03:23:49;;;;;;;;;;;;;;;17.72;45.21;100630.59;5076376;28;736;-63
2022/04/16 03:26:15;;;;;;;;;;;;;;;17.65;45.11;100627.34;5076977;28;973;-64
2022/04/16 03:28:41;;;;;;;;;;;;;;;17.64;45.17;100632.00;5076963;28;797;-64
2022/04/16 03:31:06;;;;;;;;;;;;;;;17.68;44.92;100633.09;5072225;28;886;-64
2022/04/16 03:33:32;;;;;;;;;;;;;;;17.72;45.13;100636.91;5076738;28;797;-64
2022/04/16 03:35:57;;;;;;;;;;;;;;;17.67;44.99;100638.88;5076810;28;801;-63
2022/04/16 03:38:23;;;;;;;;;;;;;;;17.69;44.92;100645.75;5076886;28;828;-62
2022/04/16 03:40:48;;;;;;;;;;;;;;;17.69;45.04;100637.50;5076564;28;1957;-62
2022/04/16 03:43:14;;;;;;;;;;;;;;;17.75;45.25;100646.53;5076468;28;853;-64
2022/04/16 03:45:40;;;;;;;;;;;;;;;17.75;45.08;100639.13;5075607;28;844;-67
2022/04/16 03:48:05;;;;;;;;;;;;;;;17.76;44.98;100631.69;5057798;28;1159;-65
2022/04/16 03:50:31;;;;;;;;;;;;;;;17.85;44.93;100642.91;5074693;28;1295;-66
2022/04/16 03:52:57;;;;;;;;;;;;;;;17.85;45.04;100642.91;5076039;28;1032;-65
2022/04/16 04:00:51;;;;;;;;;;;;;;;17.84;45.10;100646.75;5070486;28;1897;-66
2022/04/16 04:03:17;;;;;;;;;;;;;;;17.82;45.10;100647.03;5076318;28;793;-67
2022/04/16 04:05:43;;;;;;;;;;;;;;;17.91;44.95;100644.56;5075312;28;780;-67
2022/04/16 04:08:09;;;;;;;;;;;;;;;17.87;44.91;100647.00;5076526;28;761;-67
2022/04/16 04:10:35;;;;;;;;;;;;;;;17.88;45.18;100654.16;5074671;28;1036;-67
2022/04/16 04:13:00;;;;;;;;;;;;;;;17.85;45.15;100662.16;5073427;28;1231;-67
2022/04/16 04:15:27;;;;;;;;;;;;;;;17.93;44.94;100658.84;5072146;28;895;-67
2022/04/16 04:17:53;;;;;;;;;;;;;;;17.92;44.97;100658.03;5075197;28;1234;-68
2022/04/16 04:20:18;;;;;;;;;;;;;;;17.92;45.07;100662.69;5075369;28;1964;-67
2022/04/16 04:22:44;;;;;;;;;;;;;;;17.93;45.16;100656.88;5074573;28;1251;-65
2022/04/16 04:25:09;;;;;;;;;;;;;;;17.97;45.01;100659.09;5075567;28;1262;-66
2022/04/16 04:27:35;;;;;;;;;;;;;;;17.88;45.24;100664.31;5075518;28;1238;-67
2022/04/16 04:30:03;;;;;;;;;;;;;;;17.91;44.93;100666.56;5074978;28;1297;-65
2022/04/16 04:32:28;;;;;;;;;;;;;;;17.86;45.16;100664.63;5055164;28;1258;-65
2022/04/16 04:34:54;;;;;;;;;;;;;;;17.88;44.83;100669.81;5072626;28;1083;-65
2022/04/16 04:37:20;;;;;;;;;;;;;;;17.85;45.04;100673.16;5073084;28;1203;-63
2022/04/16 04:39:45;;;;;;;;;;;;;;;17.77;45.10;100663.59;5075027;28;1914;-66
2022/04/16 04:42:10;;;;;;;;;;;;;;;17.83;44.82;100658.88;5075417;28;1154;-67
2022/04/16 04:44:36;;;;;;;;;;;;;;;17.83;44.87;100661.63;5075749;28;1302;-67
2022/04/16 04:47:01;;;;;;;;;;;;;;;17.84;44.76;100660.50;5068905;28;1005;-66
2022/04/16 04:49:27;;;;;;;;;;;;;;;17.82;44.63;100657.22;5075516;28;1558;-68
2022/04/16 04:51:52;;;;;;;;;;;;;;;17.83;44.77;100667.13;5075288;28;1258;-67
2022/04/16 04:54:18;;;;;;;;;;;;;;;17.81;44.65;100659.16;5074991;28;1207;-67
2022/04/16 04:56:43;;;;;;;;;;;;;;;17.80;44.88;100660.25;5075746;28;1251;-68
2022/04/16 04:59:09;;;;;;;;;;;;;;;17.81;44.83;100663.81;5075261;28;1088;-67
2022/04/16 05:01:34;;;;;;;;;;;;;;;17.83;44.80;100664.38;5070832;28;1975;-67
2022/04/16 05:04:00;;;;;;;;;;;;;;;17.82;44.58;100665.47;5079226;28;1207;-67
2022/04/16 05:06:25;;;;;;;;;;;;;;;17.76;44.77;100670.19;5078836;28;1235;-67
2022/04/16 05:08:51;;;;;;;;;;;;;;;17.81;44.89;100661.06;5075777;28;1092;-67
2022/04/16 05:11:16;;;;;;;;;;;;;;;17.74;45.01;100659.47;5078728;28;1411;-68
2022/04/16 05:13:42;;;;;;;;;;;;;;;17.82;44.61;100666.28;5059366;28;1376;-68
2022/04/16 05:16:07;;;;;;;;;;;;;;;17.74;44.91;100662.22;5077541;28;1273;-68
2022/04/16 05:18:33;;;;;;;;;;;;;;;17.78;44.94;100671.56;5078654;28;1325;-67
2022/04/16 05:20:58;;;;;;;;;;;;;;;17.78;44.86;100673.47;5078055;28;1917;-66
2022/04/16 05:23:24;;;;;;;;;;;;;;;17.71;44.64;100670.22;5078307;28;1356;-66
2022/04/16 05:25:50;;;;;;;;;;;;;;;17.70;44.84;100669.41;5077757;28;1300;-66
2022/04/16 05:28:16;;;;;;;;;;;;;;;17.72;44.67;100678.16;5078640;28;1218;-66
2022/04/16 05:30:54;;;;;;;;;;;;;;;17.73;44.65;100682.56;5077520;28;1171;-66
2022/04/16 05:36:07;;;;;;;;;;;;;;;17.73;44.71;100682.56;5077824;28;1239;-67
2022/04/16 05:38:32;;;;;;;;;;;;;;;17.73;44.71;100681.75;5077953;28;1381;-67
2022/04/16 05:40:58;;;;;;;;;;;;;;;17.77;44.56;100689.16;5077646;28;1909;-67
2022/04/16 05:43:23;;;;;;;;;;;;;;;17.75;44.80;100688.63;5078059;28;805;-67
2022/04/16 05:45:49;;;;;;;;;;;;;;;17.74;44.65;100695.22;5072251;28;848;-67
2022/04/16 05:48:14;;;;;;;;;;;;;;;17.71;44.73;100690.31;5078346;28;1261;-67
2022/04/16 05:50:40;;;;;;;;;;;;;;;17.69;44.72;100691.69;5078301;28;1021;-67
2022/04/16 05:53:09;;;;;;;;;;;;;;;17.68;44.75;100693.59;5078041;28;837;-67
2022/04/16 05:55:34;;;;;;;;;;;;;;;17.73;44.62;100685.31;5078453;28;1659;-67
2022/04/16 05:58:00;;;;;;;;;;;;;;;17.71;44.64;100690.31;5078060;28;849;-66
2022/04/16 06:00:25;;;;;;;;;;;;;;;17.71;44.76;100679.28;5077810;28;1902;-67
2022/04/16 06:02:51;;;;;;;;;;;;;;;17.71;44.87;100694.97;5059696;28;1092;-67
2022/04/16 06:05:16;;;;;;;;;;;;;;;17.73;45.03;100681.75;5075362;28;1188;-66
2022/04/16 06:07:42;;;;;;;;;;;;;;;17.74;45.00;100686.97;5077748;28;1031;-66
2022/04/16 06:10:07;;;;;;;;;;;;;;;17.73;44.75;100676.25;5078093;28;1182;-66
2022/04/16 06:12:33;;;;;;;;;;;;;;;17.71;44.71;100681.22;5077652;28;790;-66
2022/04/16 06:14:59;;;;;;;;;;;;;;;17.68;44.84;100674.34;5058713;28;767;-67
2022/04/16 06:17:24;;;;;;;;;;;;;;;17.71;44.74;100676.53;5077169;28;1012;-66
2022/04/16 06:19:50;;;;;;;;;;;;;;;17.70;45.12;100680.41;5077226;28;1909;-67
2022/04/16 06:22:15;;;;;;;;;;;;;;;17.73;44.88;100677.06;5084073;28;829;-66
2022/04/16 06:24:41;;;;;;;;;;;;;;;17.77;44.83;100672.66;5078230;28;834;-67
2022/04/16 06:27:07;;;;;;;;;;;;;;;17.72;44.94;100672.66;5077579;28;1072;-67
2022/04/16 06:29:32;;;;;;;;;;;;;;;17.76;44.99;100681.19;5077476;28;922;-66
2022/04/16 06:31:58;;;;;;;;;;;;;;;17.68;45.19;100670.78;5071136;28;867;-67
2022/04/16 06:34:23;;;;;;;;;;;;;;;17.69;45.39;100678.75;5077188;28;1016;-67
2022/04/16 06:36:49;;;;;;;;;;;;;;;17.72;45.21;100680.91;5076776;28;1194;-67
2022/04/16 06:39:15;;;;;;;;;;;;;;;17.76;45.44;100675.69;5077661;28;1092;-67
2022/04/16 06:41:40;;;;;;;;;;;;;;;17.74;45.26;100675.97;5077434;28;1971;-67
2022/04/16 06:44:06;;;;;;;;;;;;;;;17.72;45.22;100664.41;5073101;28;943;-67
2022/04/16 06:46:32;;;;;;;;;;;;;;;17.71;45.14;100660.03;5073348;28;873;-67
2022/04/16 06:48:57;;;;;;;;;;;;;;;17.70;45.31;100671.34;5077712;28;754;-67
2022/04/16 06:51:23;;;;;;;;;;;;;;;17.73;45.33;100660.56;5077744;28;882;-67
2022/04/16 06:53:48;;;;;;;;;;;;;;;17.75;45.55;100658.38;5077524;28;753;-67
2022/04/16 06:56:14;;;;;;;;;;;;;;;17.74;45.26;100661.38;5076679;28;939;-67
2022/04/16 06:58:39;;;;;;;;;;;;;;;17.74;45.37;100667.72;5077076;28;925;-67
2022/04/16 07:01:05;;;;;;;;;;;;;;;17.77;45.22;100666.34;5068574;28;1975;-67
2022/04/16 07:03:30;;;;;;;;;;;;;;;17.72;45.46;100658.91;5076302;28;1076;-67
2022/04/16 07:05:55;;;;;;;;;;;;;;;17.71;45.33;100656.47;5077226;28;1242;-67
2022/04/16 07:08:21;;;;;;;;;;;;;;;17.70;45.42;100661.16;5073874;28;934;-67
2022/04/16 07:10:47;;;;;;;;;;;;;;;17.71;45.17;100656.47;5076089;28;1203;-67
2022/04/16 07:13:12;;;;;;;;;;;;;;;17.61;45.00;100646.34;5075999;28;1187;-67
2022/04/16 07:15:38;;;;;;;;;;;;;;;17.60;44.87;100642.78;5076040;28;1262;-67
2022/04/16 07:18:04;;;;;;;;;;;;;;;17.59;44.71;100643.88;5076865;28;822;-65
2022/04/16 07:20:30;;;;;;;;;;;;;;;17.62;44.87;100654.31;5076383;28;1910;-66
2022/04/16 07:22:55;;;;;;;;;;;;;;;17.58;44.49;100649.66;5075053;28;965;-66
2022/04/16 07:25:21;;;;;;;;;;;;;;;17.51;44.61;100651.91;5076730;28;773;-66
2022/04/16 07:27:47;;;;;;;;;;;;;;;17.48;44.62;100644.22;5070398;28;1067;-66
2022/04/16 07:30:13;;;;;;;;;;;;;;;17.42;44.52;100638.75;5072659;28;1174;-64
2022/04/16 07:32:39;;;;;;;;;;;;;;;17.38;44.41;100632.16;5076117;28;1127;-66
2022/04/16 07:35:04;;;;;;;;;;;;;;;17.43;44.16;100634.06;5074448;28;1127;-66
2022/04/16 07:37:30;;;;;;;;;;;;;;;17.42;43.97;100630.50;5053981;28;1272;-67
2022/04/16 07:39:55;;;;;;;;;;;;;;;17.42;43.88;100632.44;5076352;28;1910;-65
2022/04/16 07:42:21;;;;;;;;;;;;;;;17.38;43.95;100632.16;5076085;28;1177;-63
2022/04/16 07:44:46;;;;;;;;;;;;;;;17.43;43.89;100634.91;5076173;28;904;-64
2022/04/16 07:47:11;;;;;;;;;;;;;;;17.41;44.00;100626.09;5070263;28;961;-64
2022/04/16 07:49:37;;;;;;;;;;;;;;;17.42;44.26;100630.50;5075900;28;1290;-64
2022/04/16 07:52:03;;;;;;;;;;;;;;;17.44;44.11;100630.22;5076170;28;1309;-65
2022/04/16 07:54:28;;;;;;;;;;;;;;;17.38;44.10;100626.66;5076516;28;838;-64
2022/04/16 07:56:53;;;;;;;;;;;;;;;17.41;44.36;100626.09;5076312;28;865;-65
2022/04/16 07:59:19;;;;;;;;;;;;;;;17.40;44.08;100629.97;5074965;28;833;-65
2022/04/16 08:01:44;;;;;;;;;;;;;;;17.39;43.97;100628.31;5075763;28;1902;-64
2022/04/16 08:04:10;;;;;;;;;;;;;;;17.34;44.00;100622.03;5076151;28;850;-64
2022/04/16 08:06:35;;;;;;;;;;;;;;;17.38;44.11;100623.13;5076345;28;885;-64
2022/04/16 08:09:01;;;;;;;;;;;;;;;17.35;44.26;100624.50;5076161;28;778;-65
2022/04/16 08:11:30;;;;;;;;;;;;;;;17.42;44.02;100615.94;5076297;28;746;-63
2022/04/16 08:13:55;;;;;;;;;;;;;;;17.38;44.35;100621.19;5071839;28;994;-62
2022/04/16 08:16:20;;;;;;;;;;;;;;;17.42;44.29;100627.75;5075612;28;1028;-63
2022/04/16 08:18:46;;;;;;;;;;;;;;;17.42;44.37;100613.19;5075542;28;1080;-62
2022/04/16 08:21:11;;;;;;;;;;;;;;;17.40;44.26;100612.63;5076174;28;1898;-62
2022/04/16 08:23:43;;;;;;;;;;;;;;;17.45;44.42;100613.44;5075977;28;822;-63
2022/04/16 08:26:10;;;;;;;;;;;;;;;17.45;44.68;100613.44;5057435;28;957;-63
2022/04/16 08:28:35;;;;;;;;;;;;;;;17.41;44.70;100609.59;5075230;28;1118;-63
2022/04/16 08:31:01;;;;;;;;;;;;;;;17.41;44.49;100598.63;5076113;28;1289;-63
2022/04/16 08:33:26;;;;;;;;;;;;;;;17.44;44.72;100600.78;5075813;28;927;-63
2022/04/16 08:35:52;;;;;;;;;;;;;;;17.40;44.46;100591.50;5075732;28;874;-63
2022/04/16 08:38:17;;;;;;;;;;;;;;;17.41;44.61;100592.31;5079076;28;823;-63
2022/04/16 08:40:43;;;;;;;;;;;;;;;17.42;44.54;100596.69;5079861;28;1910;-63
2022/04/16 08:43:09;;;;;;;;;;;;;;;17.44;44.69;100580.72;5080065;28;801;-64
2022/04/16 08:45:34;;;;;;;;;;;;;;;17.41;44.76;100582.13;5078403;28;926;-64
2022/04/16 08:48:00;;;;;;;;;;;;;;;17.44;44.55;100584.28;5079552;28;783;-63
2022/04/16 08:50:25;;;;;;;;;;;;;;;17.46;44.68;100575.78;5075549;28;805;-63
2022/04/16 08:52:51;;;;;;;;;;;;;;;17.48;44.48;100573.56;5076639;28;1498;-64
2022/04/16 08:55:16;;;;;;;;;;;;;;;17.47;44.70;100577.41;5079755;28;789;-63
2022/04/16 08:57:42;;;;;;;;;;;;;;;17.47;44.48;100573.84;5079757;28;785;-63
2022/04/16 09:00:08;;;;;;;;;;;;;;;17.47;44.46;100565.59;5079340;28;1905;-63
2022/04/16 09:02:33;;;;;;;;;;;;;;;17.50;44.65;100562.28;5079591;28;754;-63
2022/04/16 09:05:06;;;;;;;;;;;;;;;17.50;44.61;100562.28;5079122;28;895;-63
2022/04/16 09:07:31;;;;;;;;;;;;;;;17.54;44.46;100561.41;5079606;28;830;-64
2022/04/16 09:10:09;;;;;;;;;;;;;;;17.49;44.60;100557.88;5079374;28;837;-64
2022/04/16 09:12:35;;;;;;;;;;;;;;;17.51;44.61;100558.44;5079154;28;794;-63
2022/04/16 09:15:04;;;;;;;;;;;;;;;17.52;44.78;100554.59;5080165;28;899;-63
2022/04/16 09:17:32;;;;;;;;;;;;;;;17.55;44.71;100559.50;5075050;28;1114;-65
2022/04/16 09:19:58;;;;;;;;;;;;;;;17.55;44.50;100551.25;5078177;28;1969;-64
2022/04/16 09:22:32;;;;;;;;;;;;;;;17.53;44.69;100547.97;5078229;28;1404;-65
2022/04/16 09:24:58;;;;;;;;;;;;;;;17.48;44.74;100564.50;5078483;28;1036;-65
2022/04/16 09:27:23;;;;;;;;;;;;;;;17.46;44.53;100553.81;5079002;28;1072;-64
2022/04/16 09:29:49;;;;;;;;;;;;;;;17.42;44.45;100556.28;5076853;28;898;-64
2022/04/16 09:32:24;;;;;;;;;;;;;;;17.47;44.34;100551.88;5076529;28;934;-64
2022/04/16 09:34:49;;;;;;;;;;;;;;;17.44;44.56;100547.75;5078943;28;797;-64
2022/04/16 09:37:15;;;;;;;;;;;;;;;17.40;44.25;100542.03;5078868;28;1091;-64
2022/04/16 09:39:41;;;;;;;;;;;;;;;17.47;44.12;100546.38;5078076;28;1906;-65
2022/04/16 09:42:06;;;;;;;;;;;;;;;17.41;44.29;100538.13;5058847;28;1202;-65
2022/04/16 09:44:32;;;;;;;;;;;;;;;17.40;44.38;100543.94;5078876;28;897;-65
2022/04/16 09:46:57;;;;;;;;;;;;;;;17.42;44.00;100537.03;5077633;28;1056;-64
2022/04/16 09:49:23;;;;;;;;;;;;;;;17.39;43.96;100536.78;5078451;28;873;-64
2022/04/16 09:51:49;;;;;;;;;;;;;;;17.38;43.97;100530.47;5078879;28;731;-65
2022/04/16 09:54:15;;;;;;;;;;;;;;;17.38;43.97;100527.72;5077601;28;814;-65
2022/04/16 09:56:41;;;;;;;;;;;;;;;17.38;44.19;100529.66;5078508;28;804;-64
2022/04/16 09:59:07;;;;;;;;;;;;;;;17.39;43.89;100534.88;5078310;28;790;-65
2022/04/16 10:01:32;;;;;;;;;;;;;;;17.36;43.88;100532.69;5078046;28;1905;-65
2022/04/16 10:03:58;;;;;;;;;;;;;;;17.36;43.91;100529.94;5077709;28;1132;-65
2022/04/16 10:06:24;;;;;;;;;;;;;;;17.36;43.84;100526.38;5056270;28;1441;-65
2022/04/16 10:08:50;;;;;;;;;;;;;;;17.31;43.93;100529.16;5074353;28;903;-65
2022/04/16 10:11:41;;;;;;;;;;;;;;;17.30;44.11;100525.56;5077973;28;1005;-64
2022/04/16 10:14:08;;;;;;;;;;;;;;;17.34;44.17;100525.84;5077836;28;1829;-64
2022/04/16 10:16:39;;;;;;;;;;;;;;;17.37;43.99;100531.56;5077231;28;1103;-65
2022/04/16 10:19:17;;;;;;;;;;;;;;;17.32;44.24;100530.78;5058927;28;1128;-65
2022/04/16 10:21:42;;;;;;;;;;;;;;;17.34;44.28;100534.91;5077325;28;1983;-65
2022/04/16 10:24:08;;;;;;;;;;;;;;;17.34;44.14;100528.59;5059291;28;1219;-64
2022/04/16 10:26:39;;;;;;;;;;;;;;;17.37;44.10;100528.81;5074140;28;1016;-65
2022/04/16 10:29:05;;;;;;;;;;;;;;;17.38;43.94;100532.41;5077959;28;798;-64
2022/04/16 10:31:33;;;;;;;;;;;;;;;17.38;44.18;100535.97;5076074;28;1120;-65
2022/04/16 10:34:05;;;;;;;;;;;;;;;17.40;44.25;100535.69;5074728;28;1162;-63
2022/04/16 10:36:37;;;;;;;;;;;;;;;17.36;44.11;100535.44;5077892;28;934;-64
2022/04/16 10:39:15;;;;;;;;;;;;;;;17.35;44.12;100533.78;5071242;28;770;-64
2022/04/16 10:41:40;;;;;;;;;;;;;;;17.37;44.33;100537.06;5072410;28;1984;-64
2022/04/16 10:44:08;;;;;;;;;;;;;;;17.37;44.28;100531.56;5059437;28;1323;-63
2022/04/16 10:46:52;;;;;;;;;;;;;;;17.43;44.07;100535.94;5070735;28;1103;-64
2022/04/16 10:49:18;;;;;;;;;;;;;;;17.44;44.16;100543.06;5076652;28;1328;-65
2022/04/16 10:51:43;;;;;;;;;;;;;;;17.42;44.16;100544.47;5077022;28;823;-64
2022/04/16 10:54:12;;;;;;;;;;;;;;;17.38;44.05;100535.97;5077283;28;845;-64
2022/04/16 10:56:40;;;;;;;;;;;;;;;17.43;44.07;100535.09;5077400;28;845;-63
2022/04/16 10:59:05;;;;;;;;;;;;;;;17.40;44.12;100541.19;5074864;28;833;-63
2022/04/16 11:01:31;;;;;;;;;;;;;;;17.37;44.38;100531.56;5072325;28;1902;-63
2022/04/16 11:03:57;;;;;;;;;;;;;;;17.39;44.17;100534.88;5077613;28;955;-64
2022/04/16 11:06:35;;;;;;;;;;;;;;;17.41;44.09;100538.13;5076938;28;825;-63
2022/04/16 11:09:00;;;;;;;;;;;;;;;17.43;44.04;100535.09;5076838;28;1060;-62
2022/04/16 11:11:26;;;;;;;;;;;;;;;17.47;44.04;100532.63;5075537;28;957;-66
2022/04/16 11:13:51;;;;;;;;;;;;;;;17.43;44.18;100535.09;5076702;28;846;-62
2022/04/16 11:16:23;;;;;;;;;;;;;;;17.42;44.22;100531.53;5073860;28;1194;-64
2022/04/16 11:18:48;;;;;;;;;;;;;;;17.45;44.23;100535.66;5076994;28;817;-63
2022/04/16 11:21:19;;;;;;;;;;;;;;;17.46;44.19;100526.31;5076520;28;1909;-63
2022/04/16 11:23:45;;;;;;;;;;;;;;;17.49;44.19;100527.66;5074290;28;1087;-64
2022/04/16 11:34:26;;;;;;;;;;;;;;;17.54;44.57;100525.69;5075871;28;1353;-63
2022/04/16 11:36:51;;;;;;;;;;;;;;;17.55;44.38;100521.03;5073548;28;1393;-64
2022/04/16 11:39:37;;;;;;;;;;;;;;;17.53;44.50;100517.72;5076810;28;1214;-64
2022/04/16 11:42:07;;;;;;;;;;;;;;;17.57;44.54;100519.63;5075622;28;1914;-65
2022/04/16 11:44:34;;;;;;;;;;;;;;;17.56;44.64;100517.16;5075730;28;1119;-65
2022/04/16 11:47:02;;;;;;;;;;;;;;;17.53;44.30;100509.47;5071221;28;933;-63
2022/04/16 11:49:28;;;;;;;;;;;;;;;17.52;44.33;100503.16;5074397;28;1103;-65
2022/04/16 11:51:53;;;;;;;;;;;;;;;17.58;44.53;100509.44;5075811;28;1452;-63
2022/04/16 11:54:26;;;;;;;;;;;;;;;17.53;44.50;100512.22;5058386;28;1128;-65
2022/04/16 11:56:51;;;;;;;;;;;;;;;17.47;44.29;100499.63;5076387;28;871;-64
2022/04/16 11:59:22;;;;;;;;;;;;;;;17.53;44.22;100501.22;5076400;28;818;-64
2022/04/16 12:01:47;;;;;;;;;;;;;;;17.52;44.38;100496.84;5072309;28;1914;-64
2022/04/16 12:04:13;;;;;;;;;;;;;;;17.53;44.23;100492.97;5057864;28;1301;-64
2022/04/16 12:06:38;;;;;;;;;;;;;;;17.61;44.07;100492.38;5076235;28;783;-64
2022/04/16 12:09:04;;;;;;;;;;;;;;;17.58;44.22;100484.69;5076193;28;888;-64
2022/04/16 12:11:29;;;;;;;;;;;;;;;17.58;44.25;100487.44;5077039;28;813;-64
2022/04/16 12:13:55;;;;;;;;;;;;;;;17.60;44.46;100485.25;5079787;28;1108;-65
2022/04/16 12:16:20;;;;;;;;;;;;;;;17.64;44.31;100483.53;5077071;28;1323;-65
2022/04/16 12:18:49;;;;;;;;;;;;;;;17.60;44.31;100477.81;5062103;28;1377;-65
2022/04/16 12:21:15;;;;;;;;;;;;;;;17.61;44.17;100475.88;5079419;28;1909;-65
2022/04/16 12:23:41;;;;;;;;;;;;;;;17.57;44.59;100477.56;5079701;28;1191;-65
2022/04/16 12:26:16;;;;;;;;;;;;;;;17.58;44.55;100477.25;5061342;28;1252;-65
2022/04/16 12:28:43;;;;;;;;;;;;;;;17.63;44.25;100484.66;5078084;28;1199;-65
2022/04/16 12:31:09;;;;;;;;;;;;;;;17.65;44.09;100465.94;5078818;28;1199;-66
2022/04/16 12:33:34;;;;;;;;;;;;;;;17.64;44.40;100466.22;5079287;28;1147;-65
2022/04/16 12:35:59;;;;;;;;;;;;;;;17.66;44.24;100475.03;5079759;28;1293;-66
2022/04/16 12:38:25;;;;;;;;;;;;;;;17.68;44.40;100465.34;5079563;28;1226;-66
2022/04/16 12:40:51;;;;;;;;;;;;;;;17.67;44.11;100469.22;5078637;28;1971;-66
2022/04/16 12:43:17;;;;;;;;;;;;;;;17.66;44.13;100475.84;5079071;28;1198;-66
2022/04/16 12:45:42;;;;;;;;;;;;;;;17.63;44.31;100470.91;5076933;28;1215;-66
2022/04/16 12:48:08;;;;;;;;;;;;;;;17.61;44.21;100467.63;5078762;28;1230;-66
2022/04/16 12:50:34;;;;;;;;;;;;;;;17.53;44.10;100463.56;5079423;28;1231;-66
2022/04/16 12:53:00;;;;;;;;;;;;;;;17.61;43.86;100470.38;5076576;28;1289;-65
2022/04/16 12:55:25;;;;;;;;;;;;;;;17.58;43.89;100454.47;5079054;28;1210;-65
2022/04/16 12:57:51;;;;;;;;;;;;;;;17.60;43.95;100463.25;5076283;28;1219;-66
2022/04/16 13:00:17;;;;;;;;;;;;;;;17.56;43.78;100462.19;5080746;28;1922;-65
2022/04/16 13:02:43;;;;;;;;;;;;;;;17.59;43.85;100456.09;5078840;28;1239;-64
2022/04/16 13:05:09;;;;;;;;;;;;;;;17.61;43.86;100464.88;5060795;28;1338;-65
2022/04/16 13:07:35;;;;;;;;;;;;;;;17.60;43.69;100469.56;5074291;28;900;-64